sensor_id;sensor_type;location;lat;lon;timestamp;P1;durP1;ratioP1;P2;durP2;ratioP2
2031;SDS011;27625;50.422;7.944;2024-01-10T00:01:34;16.92;;;7.57;;
2031;SDS011;27625;50.422;7.944;2024-01-10T00:04:01;15.80;;;8.00;;
2031;SDS011;27625;50.422;7.944;2024-01-10T00:06:27;13.27;;;7.25;;
2031;SDS011;27625;50.422;7.944;2024-01-10T00:08:54;13.98;;;8.02;;
2031;SDS011;27625;50.422;7.944;2024-01-10T00:11:21;8.23;;;6.57;;
2031;SDS011;27625;50.422;7.944;2024-01-10T00:13:53;13.30;;;6.65;;
2031;SDS011;27625;50.422;7.944;2024-01-10T00:16:26;14.80;;;8.60;;
2031;SDS011;27625;50.422;7.944;2024-01-10T00:18:55;14.20;;;6.80;;
2031;SDS011;27625;50.422;7.944;2024-01-10T00:21:22;17.08;;;8.88;;
2031;SDS011;27625;50.422;7.944;2024-01-10T00:23:54;16.02;;;8.15;;
2031;SDS011;27625;50.422;7.944;2024-01-10T00:26:22;14.50;;;8.48;;
2031;SDS011;27625;50.422;7.944;2024-01-10T00:28:49;11.23;;;8.32;;
2031;SDS011;27625;50.422;7.944;2024-01-10T00:31:16;13.13;;;8.63;;
2031;SDS011;27625;50.422;7.944;2024-01-10T00:33:44;14.43;;;8.68;;
2031;SDS011;27625;50.422;7.944;2024-01-10T00:36:12;17.85;;;9.18;;
2031;SDS011;27625;50.422;7.944;2024-01-10T00:38:42;11.82;;;8.63;;
2031;SDS011;27625;50.422;7.944;2024-01-10T00:43:41;18.52;;;8.65;;
2031;SDS011;27625;50.422;7.944;2024-01-10T00:46:08;11.68;;;8.07;;
2031;SDS011;27625;50.422;7.944;2024-01-10T00:48:35;18.85;;;8.38;;
2031;SDS011;27625;50.422;7.944;2024-01-10T00:51:01;17.05;;;8.00;;
2031;SDS011;27625;50.422;7.944;2024-01-10T00:53:35;13.73;;;7.10;;
2031;SDS011;27625;50.422;7.944;2024-01-10T00:56:04;13.02;;;9.27;;
2031;SDS011;27625;50.422;7.944;2024-01-10T00:58:31;15.55;;;7.10;;
2031;SDS011;27625;50.422;7.944;2024-01-10T01:00:58;19.52;;;10.07;;
2031;SDS011;27625;50.422;7.944;2024-01-10T01:03:24;19.98;;;8.75;;
2031;SDS011;27625;50.422;7.944;2024-01-10T01:05:58;14.00;;;8.63;;
2031;SDS011;27625;50.422;7.944;2024-01-10T01:08:26;11.55;;;8.00;;
2031;SDS011;27625;50.422;7.944;2024-01-10T01:10:54;15.68;;;9.63;;
2031;SDS011;27625;50.422;7.944;2024-01-10T01:13:30;13.90;;;9.18;;
2031;SDS011;27625;50.422;7.944;2024-01-10T01:15:58;19.83;;;9.60;;
2031;SDS011;27625;50.422;7.944;2024-01-10T01:18:26;19.55;;;8.95;;
2031;SDS011;27625;50.422;7.944;2024-01-10T01:20:53;14.23;;;7.78;;
2031;SDS011;27625;50.422;7.944;2024-01-10T01:23:22;13.68;;;8.43;;
2031;SDS011;27625;50.422;7.944;2024-01-10T01:25:49;13.88;;;8.55;;
2031;SDS011;27625;50.422;7.944;2024-01-10T01:28:17;20.23;;;9.45;;
2031;SDS011;27625;50.422;7.944;2024-01-10T01:30:50;17.20;;;9.30;;
2031;SDS011;27625;50.422;7.944;2024-01-10T01:33:16;17.95;;;10.60;;
2031;SDS011;27625;50.422;7.944;2024-01-10T01:35:43;10.90;;;7.38;;
2031;SDS011;27625;50.422;7.944;2024-01-10T01:38:10;17.98;;;10.93;;
2031;SDS011;27625;50.422;7.944;2024-01-10T01:40:37;17.50;;;8.43;;
2031;SDS011;27625;50.422;7.944;2024-01-10T01:43:18;20.30;;;9.95;;
2031;SDS011;27625;50.422;7.944;2024-01-10T01:45:47;15.95;;;9.43;;
2031;SDS011;27625;50.422;7.944;2024-01-10T01:48:17;17.58;;;9.50;;
2031;SDS011;27625;50.422;7.944;2024-01-10T01:50:44;16.80;;;9.93;;
2031;SDS011;27625;50.422;7.944;2024-01-10T01:53:11;18.98;;;9.85;;
2031;SDS011;27625;50.422;7.944;2024-01-10T01:55:39;15.98;;;10.02;;
2031;SDS011;27625;50.422;7.944;2024-01-10T01:58:06;15.50;;;10.57;;
2031;SDS011;27625;50.422;7.944;2024-01-10T02:00:37;23.77;;;13.52;;
2031;SDS011;27625;50.422;7.944;2024-01-10T02:03:04;25.83;;;11.05;;
2031;SDS011;27625;50.422;7.944;2024-01-10T02:05:32;25.20;;;10.40;;
2031;SDS011;27625;50.422;7.944;2024-01-10T02:08:04;17.27;;;10.32;;
2031;SDS011;27625;50.422;7.944;2024-01-10T02:10:31;17.05;;;9.98;;
2031;SDS011;27625;50.422;7.944;2024-01-10T02:13:05;18.75;;;9.05;;
2031;SDS011;27625;50.422;7.944;2024-01-10T02:15:38;18.00;;;9.55;;
2031;SDS011;27625;50.422;7.944;2024-01-10T02:18:05;17.70;;;10.13;;
2031;SDS011;27625;50.422;7.944;2024-01-10T02:20:33;14.70;;;9.90;;
2031;SDS011;27625;50.422;7.944;2024-01-10T02:23:00;15.27;;;11.23;;
2031;SDS011;27625;50.422;7.944;2024-01-10T02:25:29;15.52;;;10.82;;
2031;SDS011;27625;50.422;7.944;2024-01-10T02:27:56;19.38;;;11.73;;
2031;SDS011;27625;50.422;7.944;2024-01-10T02:30:24;20.42;;;11.00;;
2031;SDS011;27625;50.422;7.944;2024-01-10T02:32:51;18.15;;;10.55;;
2031;SDS011;27625;50.422;7.944;2024-01-10T02:35:21;19.17;;;12.45;;
2031;SDS011;27625;50.422;7.944;2024-01-10T02:37:48;19.65;;;9.50;;
2031;SDS011;27625;50.422;7.944;2024-01-10T02:40:17;18.38;;;9.80;;
2031;SDS011;27625;50.422;7.944;2024-01-10T02:45:18;22.75;;;9.57;;
2031;SDS011;27625;50.422;7.944;2024-01-10T02:47:46;32.60;;;11.13;;
2031;SDS011;27625;50.422;7.944;2024-01-10T02:50:19;20.40;;;10.93;;
2031;SDS011;27625;50.422;7.944;2024-01-10T02:52:46;20.83;;;11.75;;
2031;SDS011;27625;50.422;7.944;2024-01-10T02:55:12;21.40;;;12.05;;
2031;SDS011;27625;50.422;7.944;2024-01-10T02:57:39;19.45;;;11.20;;
2031;SDS011;27625;50.422;7.944;2024-01-10T03:00:10;22.38;;;12.32;;
2031;SDS011;27625;50.422;7.944;2024-01-10T03:02:40;22.75;;;11.07;;
2031;SDS011;27625;50.422;7.944;2024-01-10T03:05:07;19.77;;;11.70;;
2031;SDS011;27625;50.422;7.944;2024-01-10T03:07:39;21.52;;;11.38;;
2031;SDS011;27625;50.422;7.944;2024-01-10T03:10:07;15.52;;;10.60;;
2031;SDS011;27625;50.422;7.944;2024-01-10T03:12:35;18.63;;;10.70;;
2031;SDS011;27625;50.422;7.944;2024-01-10T03:15:03;16.65;;;9.85;;
2031;SDS011;27625;50.422;7.944;2024-01-10T03:17:38;18.00;;;11.27;;
2031;SDS011;27625;50.422;7.944;2024-01-10T03:20:06;22.75;;;10.57;;
2031;SDS011;27625;50.422;7.944;2024-01-10T03:22:35;18.80;;;9.73;;
2031;SDS011;27625;50.422;7.944;2024-01-10T03:25:01;19.63;;;10.98;;
2031;SDS011;27625;50.422;7.944;2024-01-10T03:27:28;14.32;;;9.70;;
2031;SDS011;27625;50.422;7.944;2024-01-10T03:29:55;16.27;;;10.90;;
2031;SDS011;27625;50.422;7.944;2024-01-10T03:32:22;23.17;;;10.50;;
2031;SDS011;27625;50.422;7.944;2024-01-10T03:34:50;17.50;;;11.50;;
2031;SDS011;27625;50.422;7.944;2024-01-10T03:37:25;25.67;;;11.25;;
2031;SDS011;27625;50.422;7.944;2024-01-10T03:39:52;17.02;;;10.15;;
2031;SDS011;27625;50.422;7.944;2024-01-10T03:42:20;17.67;;;11.15;;
2031;SDS011;27625;50.422;7.944;2024-01-10T03:44:46;28.70;;;11.90;;
2031;SDS011;27625;50.422;7.944;2024-01-10T03:47:16;31.10;;;13.00;;
2031;SDS011;27625;50.422;7.944;2024-01-10T03:49:44;26.40;;;12.30;;
2031;SDS011;27625;50.422;7.944;2024-01-10T03:52:12;17.63;;;10.45;;
2031;SDS011;27625;50.422;7.944;2024-01-10T03:54:39;23.48;;;11.43;;
2031;SDS011;27625;50.422;7.944;2024-01-10T03:57:08;21.95;;;11.68;;
2031;SDS011;27625;50.422;7.944;2024-01-10T03:59:35;22.65;;;12.45;;
2031;SDS011;27625;50.422;7.944;2024-01-10T04:02:04;17.52;;;9.18;;
2031;SDS011;27625;50.422;7.944;2024-01-10T04:04:31;24.08;;;12.73;;
2031;SDS011;27625;50.422;7.944;2024-01-10T04:06:58;20.20;;;11.23;;
2031;SDS011;27625;50.422;7.944;2024-01-10T04:09:33;20.48;;;10.90;;
2031;SDS011;27625;50.422;7.944;2024-01-10T04:12:00;23.27;;;11.27;;
2031;SDS011;27625;50.422;7.944;2024-01-10T04:14:26;25.50;;;12.30;;
2031;SDS011;27625;50.422;7.944;2024-01-10T04:16:53;17.40;;;9.95;;
2031;SDS011;27625;50.422;7.944;2024-01-10T04:19:21;22.92;;;12.30;;
2031;SDS011;27625;50.422;7.944;2024-01-10T04:21:55;18.45;;;12.20;;
2031;SDS011;27625;50.422;7.944;2024-01-10T04:24:24;17.23;;;9.70;;
2031;SDS011;27625;50.422;7.944;2024-01-10T04:26:54;17.50;;;11.65;;
2031;SDS011;27625;50.422;7.944;2024-01-10T04:29:21;18.65;;;10.75;;
2031;SDS011;27625;50.422;7.944;2024-01-10T04:31:48;23.98;;;12.40;;
2031;SDS011;27625;50.422;7.944;2024-01-10T04:36:48;17.95;;;10.45;;
2031;SDS011;27625;50.422;7.944;2024-01-10T04:39:16;22.05;;;12.30;;
2031;SDS011;27625;50.422;7.944;2024-01-10T04:41:43;24.35;;;11.50;;
2031;SDS011;27625;50.422;7.944;2024-01-10T04:44:17;19.75;;;12.55;;
2031;SDS011;27625;50.422;7.944;2024-01-10T04:46:43;14.52;;;9.25;;
2031;SDS011;27625;50.422;7.944;2024-01-10T04:49:14;19.30;;;10.63;;
2031;SDS011;27625;50.422;7.944;2024-01-10T04:51:43;17.88;;;9.77;;
2031;SDS011;27625;50.422;7.944;2024-01-10T04:54:11;20.90;;;11.00;;
2031;SDS011;27625;50.422;7.944;2024-01-10T04:56:38;22.65;;;11.32;;
2031;SDS011;27625;50.422;7.944;2024-01-10T04:59:05;18.67;;;11.68;;
2031;SDS011;27625;50.422;7.944;2024-01-10T05:01:36;20.58;;;9.57;;
2031;SDS011;27625;50.422;7.944;2024-01-10T05:04:05;22.63;;;11.77;;
2031;SDS011;27625;50.422;7.944;2024-01-10T05:06:32;22.02;;;11.10;;
2031;SDS011;27625;50.422;7.944;2024-01-10T05:08:59;23.55;;;10.55;;
2031;SDS011;27625;50.422;7.944;2024-01-10T05:11:26;14.85;;;10.73;;
2031;SDS011;27625;50.422;7.944;2024-01-10T05:13:54;19.65;;;10.20;;
2031;SDS011;27625;50.422;7.944;2024-01-10T05:16:21;17.70;;;11.15;;
2031;SDS011;27625;50.422;7.944;2024-01-10T05:18:56;18.33;;;11.52;;
2031;SDS011;27625;50.422;7.944;2024-01-10T05:21:23;28.67;;;11.65;;
2031;SDS011;27625;50.422;7.944;2024-01-10T05:23:51;23.13;;;12.00;;
2031;SDS011;27625;50.422;7.944;2024-01-10T05:26:18;20.60;;;10.63;;
2031;SDS011;27625;50.422;7.944;2024-01-10T05:28:47;23.13;;;11.40;;
2031;SDS011;27625;50.422;7.944;2024-01-10T05:31:15;17.90;;;11.70;;
2031;SDS011;27625;50.422;7.944;2024-01-10T05:33:41;19.50;;;10.80;;
2031;SDS011;27625;50.422;7.944;2024-01-10T05:36:10;21.65;;;11.35;;
2031;SDS011;27625;50.422;7.944;2024-01-10T05:38:38;16.08;;;10.07;;
2031;SDS011;27625;50.422;7.944;2024-01-10T05:41:08;20.05;;;10.15;;
2031;SDS011;27625;50.422;7.944;2024-01-10T05:43:35;20.50;;;12.55;;
2031;SDS011;27625;50.422;7.944;2024-01-10T05:46:02;25.85;;;12.02;;
2031;SDS011;27625;50.422;7.944;2024-01-10T05:48:36;20.52;;;11.15;;
2031;SDS011;27625;50.422;7.944;2024-01-10T05:51:03;18.08;;;11.35;;
2031;SDS011;27625;50.422;7.944;2024-01-10T05:53:32;21.40;;;11.82;;
2031;SDS011;27625;50.422;7.944;2024-01-10T05:56:00;17.15;;;10.43;;
2031;SDS011;27625;50.422;7.944;2024-01-10T05:58:27;18.58;;;12.00;;
2031;SDS011;27625;50.422;7.944;2024-01-10T06:00:54;15.43;;;9.82;;
2031;SDS011;27625;50.422;7.944;2024-01-10T06:03:21;22.75;;;12.35;;
2031;SDS011;27625;50.422;7.944;2024-01-10T06:05:47;28.65;;;14.40;;
2031;SDS011;27625;50.422;7.944;2024-01-10T06:08:14;20.47;;;10.57;;
2031;SDS011;27625;50.422;7.944;2024-01-10T06:10:43;13.75;;;10.88;;
2031;SDS011;27625;50.422;7.944;2024-01-10T06:13:11;30.52;;;14.02;;
2031;SDS011;27625;50.422;7.944;2024-01-10T06:15:39;26.33;;;13.68;;
2031;SDS011;27625;50.422;7.944;2024-01-10T06:18:06;21.63;;;11.60;;
2031;SDS011;27625;50.422;7.944;2024-01-10T06:20:33;22.65;;;10.05;;
2031;SDS011;27625;50.422;7.944;2024-01-10T06:23:09;29.20;;;12.85;;
2031;SDS011;27625;50.422;7.944;2024-01-10T06:25:37;15.40;;;11.13;;
2031;SDS011;27625;50.422;7.944;2024-01-10T06:30:37;23.17;;;10.70;;
2031;SDS011;27625;50.422;7.944;2024-01-10T06:33:03;20.48;;;11.07;;
2031;SDS011;27625;50.422;7.944;2024-01-10T06:35:36;24.52;;;12.40;;
2031;SDS011;27625;50.422;7.944;2024-01-10T06:38:07;21.38;;;12.43;;
2031;SDS011;27625;50.422;7.944;2024-01-10T06:40:35;17.80;;;11.45;;
2031;SDS011;27625;50.422;7.944;2024-01-10T06:43:04;18.92;;;11.80;;
2031;SDS011;27625;50.422;7.944;2024-01-10T06:45:35;26.08;;;12.30;;
2031;SDS011;27625;50.422;7.944;2024-01-10T06:48:07;15.90;;;11.13;;
2031;SDS011;27625;50.422;7.944;2024-01-10T06:50:40;21.30;;;11.40;;
2031;SDS011;27625;50.422;7.944;2024-01-10T06:53:07;19.48;;;12.95;;
2031;SDS011;27625;50.422;7.944;2024-01-10T06:55:41;19.00;;;11.52;;
2031;SDS011;27625;50.422;7.944;2024-01-10T06:58:09;12.90;;;11.45;;
2031;SDS011;27625;50.422;7.944;2024-01-10T07:00:43;23.80;;;12.57;;
2031;SDS011;27625;50.422;7.944;2024-01-10T07:03:10;18.23;;;11.20;;
2031;SDS011;27625;50.422;7.944;2024-01-10T07:05:36;19.38;;;9.90;;
2031;SDS011;27625;50.422;7.944;2024-01-10T07:08:03;20.55;;;11.27;;
2031;SDS011;27625;50.422;7.944;2024-01-10T07:10:31;21.73;;;10.95;;
2031;SDS011;27625;50.422;7.944;2024-01-10T07:13:00;19.27;;;11.38;;
2031;SDS011;27625;50.422;7.944;2024-01-10T07:15:30;20.60;;;11.60;;
2031;SDS011;27625;50.422;7.944;2024-01-10T07:17:58;19.60;;;12.02;;
2031;SDS011;27625;50.422;7.944;2024-01-10T07:20:27;24.42;;;12.30;;
2031;SDS011;27625;50.422;7.944;2024-01-10T07:23:02;19.70;;;13.48;;
2031;SDS011;27625;50.422;7.944;2024-01-10T07:25:29;18.25;;;12.05;;
2031;SDS011;27625;50.422;7.944;2024-01-10T07:27:58;24.13;;;12.48;;
2031;SDS011;27625;50.422;7.944;2024-01-10T07:30:30;23.38;;;12.68;;
2031;SDS011;27625;50.422;7.944;2024-01-10T07:33:00;18.65;;;11.80;;
2031;SDS011;27625;50.422;7.944;2024-01-10T07:35:27;18.88;;;11.70;;
2031;SDS011;27625;50.422;7.944;2024-01-10T07:37:56;16.88;;;10.95;;
2031;SDS011;27625;50.422;7.944;2024-01-10T07:40:24;36.47;;;14.57;;
2031;SDS011;27625;50.422;7.944;2024-01-10T07:42:54;18.75;;;12.55;;
2031;SDS011;27625;50.422;7.944;2024-01-10T07:45:21;19.13;;;12.48;;
2031;SDS011;27625;50.422;7.944;2024-01-10T07:47:47;18.30;;;11.13;;
2031;SDS011;27625;50.422;7.944;2024-01-10T07:50:18;24.48;;;13.90;;
2031;SDS011;27625;50.422;7.944;2024-01-10T07:52:47;25.77;;;12.95;;
2031;SDS011;27625;50.422;7.944;2024-01-10T07:55:15;18.58;;;10.88;;
2031;SDS011;27625;50.422;7.944;2024-01-10T07:57:42;23.83;;;14.45;;
2031;SDS011;27625;50.422;7.944;2024-01-10T08:00:11;18.65;;;12.20;;
2031;SDS011;27625;50.422;7.944;2024-01-10T08:02:39;19.92;;;11.40;;
2031;SDS011;27625;50.422;7.944;2024-01-10T08:05:06;24.35;;;12.60;;
2031;SDS011;27625;50.422;7.944;2024-01-10T08:07:35;20.50;;;12.93;;
2031;SDS011;27625;50.422;7.944;2024-01-10T08:10:03;25.60;;;12.82;;
2031;SDS011;27625;50.422;7.944;2024-01-10T08:12:30;28.33;;;14.52;;
2031;SDS011;27625;50.422;7.944;2024-01-10T08:14:57;17.45;;;10.15;;
2031;SDS011;27625;50.422;7.944;2024-01-10T08:17:25;17.05;;;11.05;;
2031;SDS011;27625;50.422;7.944;2024-01-10T08:19:52;21.85;;;11.05;;
2031;SDS011;27625;50.422;7.944;2024-01-10T08:22:19;23.73;;;13.50;;
2031;SDS011;27625;50.422;7.944;2024-01-10T08:24:47;21.58;;;11.77;;
2031;SDS011;27625;50.422;7.944;2024-01-10T08:27:15;17.63;;;11.77;;
2031;SDS011;27625;50.422;7.944;2024-01-10T08:29:46;27.58;;;11.68;;
2031;SDS011;27625;50.422;7.944;2024-01-10T08:32:13;23.08;;;11.75;;
2031;SDS011;27625;50.422;7.944;2024-01-10T08:34:49;29.52;;;13.43;;
2031;SDS011;27625;50.422;7.944;2024-01-10T08:37:17;19.50;;;11.25;;
2031;SDS011;27625;50.422;7.944;2024-01-10T08:39:45;22.17;;;13.40;;
2031;SDS011;27625;50.422;7.944;2024-01-10T08:42:16;25.65;;;12.20;;
2031;SDS011;27625;50.422;7.944;2024-01-10T08:44:45;19.30;;;13.18;;
2031;SDS011;27625;50.422;7.944;2024-01-10T08:47:11;20.08;;;10.27;;
2031;SDS011;27625;50.422;7.944;2024-01-10T08:49:39;19.25;;;12.52;;
2031;SDS011;27625;50.422;7.944;2024-01-10T08:52:06;16.67;;;11.15;;
2031;SDS011;27625;50.422;7.944;2024-01-10T08:54:34;25.67;;;13.18;;
2031;SDS011;27625;50.422;7.944;2024-01-10T08:57:02;24.05;;;13.00;;
2031;SDS011;27625;50.422;7.944;2024-01-10T08:59:30;26.15;;;14.23;;
2031;SDS011;27625;50.422;7.944;2024-01-10T09:01:57;19.73;;;13.10;;
2031;SDS011;27625;50.422;7.944;2024-01-10T09:04:25;21.10;;;13.57;;
2031;SDS011;27625;50.422;7.944;2024-01-10T09:06:52;20.98;;;12.77;;
2031;SDS011;27625;50.422;7.944;2024-01-10T09:09:21;22.85;;;13.07;;
2031;SDS011;27625;50.422;7.944;2024-01-10T09:11:49;14.80;;;9.65;;
2031;SDS011;27625;50.422;7.944;2024-01-10T09:14:20;21.58;;;12.90;;
2031;SDS011;27625;50.422;7.944;2024-01-10T09:16:49;27.65;;;14.30;;
2031;SDS011;27625;50.422;7.944;2024-01-10T09:19:15;25.65;;;12.80;;
2031;SDS011;27625;50.422;7.944;2024-01-10T09:22:02;24.00;;;12.32;;
2031;SDS011;27625;50.422;7.944;2024-01-10T09:24:32;24.35;;;11.90;;
2031;SDS011;27625;50.422;7.944;2024-01-10T09:27:21;20.83;;;13.02;;
2031;SDS011;27625;50.422;7.944;2024-01-10T09:30:09;22.85;;;13.48;;
2031;SDS011;27625;50.422;7.944;2024-01-10T09:32:57;22.58;;;11.93;;
2031;SDS011;27625;50.422;7.944;2024-01-10T09:35:47;25.13;;;14.43;;
2031;SDS011;27625;50.422;7.944;2024-01-10T09:38:34;34.92;;;13.05;;
2031;SDS011;27625;50.422;7.944;2024-01-10T09:41:22;25.83;;;14.93;;
2031;SDS011;27625;50.422;7.944;2024-01-10T09:44:08;27.60;;;13.55;;
2031;SDS011;27625;50.422;7.944;2024-01-10T09:46:54;19.77;;;12.18;;
2031;SDS011;27625;50.422;7.944;2024-01-10T09:49:23;19.70;;;12.73;;
2031;SDS011;27625;50.422;7.944;2024-01-10T09:51:53;23.00;;;12.13;;
2031;SDS011;27625;50.422;7.944;2024-01-10T09:54:22;24.30;;;12.77;;
2031;SDS011;27625;50.422;7.944;2024-01-10T09:56:56;28.38;;;12.27;;
2031;SDS011;27625;50.422;7.944;2024-01-10T09:59:24;22.75;;;13.55;;
2031;SDS011;27625;50.422;7.944;2024-01-10T10:01:51;27.92;;;12.80;;
2031;SDS011;27625;50.422;7.944;2024-01-10T10:04:19;28.08;;;13.38;;
2031;SDS011;27625;50.422;7.944;2024-01-10T10:06:59;28.80;;;12.98;;
2031;SDS011;27625;50.422;7.944;2024-01-10T10:09:27;22.98;;;13.00;;
2031;SDS011;27625;50.422;7.944;2024-01-10T10:11:54;27.00;;;13.15;;
2031;SDS011;27625;50.422;7.944;2024-01-10T10:14:23;33.03;;;14.32;;
2031;SDS011;27625;50.422;7.944;2024-01-10T10:16:52;26.20;;;15.93;;
2031;SDS011;27625;50.422;7.944;2024-01-10T10:19:22;33.33;;;14.88;;
2031;SDS011;27625;50.422;7.944;2024-01-10T10:21:50;25.00;;;13.48;;
2031;SDS011;27625;50.422;7.944;2024-01-10T10:24:19;35.50;;;16.48;;
2031;SDS011;27625;50.422;7.944;2024-01-10T10:26:47;27.95;;;14.43;;
2031;SDS011;27625;50.422;7.944;2024-01-10T10:29:17;23.47;;;13.77;;
2031;SDS011;27625;50.422;7.944;2024-01-10T10:31:47;29.40;;;14.18;;
2031;SDS011;27625;50.422;7.944;2024-01-10T10:34:16;29.95;;;14.50;;
2031;SDS011;27625;50.422;7.944;2024-01-10T10:36:49;30.35;;;14.02;;
2031;SDS011;27625;50.422;7.944;2024-01-10T10:39:16;21.35;;;13.13;;
2031;SDS011;27625;50.422;7.944;2024-01-10T10:41:44;23.43;;;13.83;;
2031;SDS011;27625;50.422;7.944;2024-01-10T10:44:13;20.48;;;11.82;;
2031;SDS011;27625;50.422;7.944;2024-01-10T10:46:42;21.75;;;12.57;;
2031;SDS011;27625;50.422;7.944;2024-01-10T10:49:11;34.08;;;15.45;;
2031;SDS011;27625;50.422;7.944;2024-01-10T10:51:38;26.15;;;13.43;;
2031;SDS011;27625;50.422;7.944;2024-01-10T10:54:05;21.20;;;12.00;;
2031;SDS011;27625;50.422;7.944;2024-01-10T10:56:33;24.27;;;13.60;;
2031;SDS011;27625;50.422;7.944;2024-01-10T10:59:02;29.80;;;13.68;;
2031;SDS011;27625;50.422;7.944;2024-01-10T11:01:31;23.67;;;12.68;;
2031;SDS011;27625;50.422;7.944;2024-01-10T11:03:58;20.98;;;11.70;;
2031;SDS011;27625;50.422;7.944;2024-01-10T11:06:25;27.43;;;14.03;;
2031;SDS011;27625;50.422;7.944;2024-01-10T11:08:54;27.90;;;15.82;;
2031;SDS011;27625;50.422;7.944;2024-01-10T11:11:31;24.40;;;12.82;;
2031;SDS011;27625;50.422;7.944;2024-01-10T11:14:18;21.75;;;12.50;;
2031;SDS011;27625;50.422;7.944;2024-01-10T11:22:52;27.48;;;14.43;;
2031;SDS011;27625;50.422;7.944;2024-01-10T11:25:30;31.42;;;14.35;;
2031;SDS011;27625;50.422;7.944;2024-01-10T11:28:02;38.30;;;14.00;;
2031;SDS011;27625;50.422;7.944;2024-01-10T11:30:36;26.60;;;14.10;;
2031;SDS011;27625;50.422;7.944;2024-01-10T11:33:17;23.88;;;12.77;;
2031;SDS011;27625;50.422;7.944;2024-01-10T11:38:38;25.60;;;12.43;;
2031;SDS011;27625;50.422;7.944;2024-01-10T11:46:55;25.07;;;14.87;;
2031;SDS011;27625;50.422;7.944;2024-01-10T11:49:24;27.67;;;15.93;;
2031;SDS011;27625;50.422;7.944;2024-01-10T11:51:52;29.90;;;14.50;;
2031;SDS011;27625;50.422;7.944;2024-01-10T11:54:40;27.30;;;13.80;;
2031;SDS011;27625;50.422;7.944;2024-01-10T11:57:11;19.80;;;12.73;;
2031;SDS011;27625;50.422;7.944;2024-01-10T11:59:41;24.38;;;14.48;;
2031;SDS011;27625;50.422;7.944;2024-01-10T12:02:10;30.75;;;12.93;;
2031;SDS011;27625;50.422;7.944;2024-01-10T12:04:39;25.65;;;12.73;;
2031;SDS011;27625;50.422;7.944;2024-01-10T12:07:06;25.02;;;13.75;;
2031;SDS011;27625;50.422;7.944;2024-01-10T12:09:36;31.43;;;13.70;;
2031;SDS011;27625;50.422;7.944;2024-01-10T12:12:03;28.30;;;12.98;;
2031;SDS011;27625;50.422;7.944;2024-01-10T12:14:32;28.90;;;12.65;;
2031;SDS011;27625;50.422;7.944;2024-01-10T12:17:00;30.00;;;14.60;;
2031;SDS011;27625;50.422;7.944;2024-01-10T12:19:30;25.47;;;13.30;;
2031;SDS011;27625;50.422;7.944;2024-01-10T12:21:57;31.87;;;15.07;;
2031;SDS011;27625;50.422;7.944;2024-01-10T12:24:24;25.67;;;13.53;;
2031;SDS011;27625;50.422;7.944;2024-01-10T12:26:55;24.90;;;12.90;;
2031;SDS011;27625;50.422;7.944;2024-01-10T12:29:22;27.98;;;14.80;;
2031;SDS011;27625;50.422;7.944;2024-01-10T12:31:50;25.73;;;13.43;;
2031;SDS011;27625;50.422;7.944;2024-01-10T12:34:17;27.23;;;14.23;;
2031;SDS011;27625;50.422;7.944;2024-01-10T12:36:46;24.50;;;13.13;;
2031;SDS011;27625;50.422;7.944;2024-01-10T12:39:13;27.30;;;14.60;;
2031;SDS011;27625;50.422;7.944;2024-01-10T12:41:40;30.03;;;15.40;;
2031;SDS011;27625;50.422;7.944;2024-01-10T12:44:09;30.00;;;14.17;;
2031;SDS011;27625;50.422;7.944;2024-01-10T12:46:49;28.93;;;15.30;;
2031;SDS011;27625;50.422;7.944;2024-01-10T12:49:18;26.30;;;15.37;;
2031;SDS011;27625;50.422;7.944;2024-01-10T12:51:51;26.47;;;14.23;;
2031;SDS011;27625;50.422;7.944;2024-01-10T12:54:17;27.93;;;12.53;;
2031;SDS011;27625;50.422;7.944;2024-01-10T12:56:45;24.20;;;13.30;;
2031;SDS011;27625;50.422;7.944;2024-01-10T12:59:12;27.80;;;14.90;;
2031;SDS011;27625;50.422;7.944;2024-01-10T13:01:41;25.93;;;13.10;;
2031;SDS011;27625;50.422;7.944;2024-01-10T13:04:08;26.77;;;16.37;;
2031;SDS011;27625;50.422;7.944;2024-01-10T13:06:35;24.57;;;14.03;;
2031;SDS011;27625;50.422;7.944;2024-01-10T13:09:03;24.67;;;11.87;;
2031;SDS011;27625;50.422;7.944;2024-01-10T13:11:33;24.17;;;13.50;;
2031;SDS011;27625;50.422;7.944;2024-01-10T13:14:00;27.03;;;13.17;;
2031;SDS011;27625;50.422;7.944;2024-01-10T13:16:26;34.30;;;15.10;;
2031;SDS011;27625;50.422;7.944;2024-01-10T13:18:53;26.57;;;13.30;;
2031;SDS011;27625;50.422;7.944;2024-01-10T13:21:22;19.80;;;12.20;;
2031;SDS011;27625;50.422;7.944;2024-01-10T13:23:49;26.07;;;14.30;;
2031;SDS011;27625;50.422;7.944;2024-01-10T13:28:53;28.97;;;14.37;;
2031;SDS011;27625;50.422;7.944;2024-01-10T13:31:22;30.80;;;13.33;;
2031;SDS011;27625;50.422;7.944;2024-01-10T13:33:49;28.63;;;14.00;;
2031;SDS011;27625;50.422;7.944;2024-01-10T13:36:16;22.70;;;12.87;;
2031;SDS011;27625;50.422;7.944;2024-01-10T13:38:45;28.40;;;12.97;;
2031;SDS011;27625;50.422;7.944;2024-01-10T13:41:11;28.30;;;13.43;;
2031;SDS011;27625;50.422;7.944;2024-01-10T13:43:40;29.03;;;13.30;;
2031;SDS011;27625;50.422;7.944;2024-01-10T13:46:06;25.43;;;13.17;;
2031;SDS011;27625;50.422;7.944;2024-01-10T13:48:33;33.37;;;14.33;;
2031;SDS011;27625;50.422;7.944;2024-01-10T13:51:01;24.03;;;12.50;;
2031;SDS011;27625;50.422;7.944;2024-01-10T13:53:29;27.20;;;13.07;;
2031;SDS011;27625;50.422;7.944;2024-01-10T13:56:00;21.33;;;11.40;;
2031;SDS011;27625;50.422;7.944;2024-01-10T13:58:27;21.90;;;10.40;;
2031;SDS011;27625;50.422;7.944;2024-01-10T14:00:55;26.07;;;12.40;;
2031;SDS011;27625;50.422;7.944;2024-01-10T14:03:23;25.80;;;12.97;;
2031;SDS011;27625;50.422;7.944;2024-01-10T14:05:57;23.63;;;11.57;;
2031;SDS011;27625;50.422;7.944;2024-01-10T14:08:24;20.47;;;12.07;;
2031;SDS011;27625;50.422;7.944;2024-01-10T14:10:52;23.70;;;12.20;;
2031;SDS011;27625;50.422;7.944;2024-01-10T14:13:19;26.57;;;12.90;;
2031;SDS011;27625;50.422;7.944;2024-01-10T14:15:45;19.17;;;11.10;;
2031;SDS011;27625;50.422;7.944;2024-01-10T14:18:15;20.90;;;11.90;;
2031;SDS011;27625;50.422;7.944;2024-01-10T14:20:48;24.90;;;13.50;;
2031;SDS011;27625;50.422;7.944;2024-01-10T14:23:17;26.43;;;12.77;;
2031;SDS011;27625;50.422;7.944;2024-01-10T14:25:46;25.23;;;13.17;;
2031;SDS011;27625;50.422;7.944;2024-01-10T14:28:13;18.50;;;10.87;;
2031;SDS011;27625;50.422;7.944;2024-01-10T14:30:41;27.37;;;14.13;;
2031;SDS011;27625;50.422;7.944;2024-01-10T14:33:09;23.47;;;11.87;;
2031;SDS011;27625;50.422;7.944;2024-01-10T14:35:42;22.93;;;12.90;;
2031;SDS011;27625;50.422;7.944;2024-01-10T14:38:11;19.03;;;12.37;;
2031;SDS011;27625;50.422;7.944;2024-01-10T14:40:41;24.73;;;13.10;;
2031;SDS011;27625;50.422;7.944;2024-01-10T14:43:08;21.73;;;12.17;;
2031;SDS011;27625;50.422;7.944;2024-01-10T14:45:34;24.70;;;11.60;;
2031;SDS011;27625;50.422;7.944;2024-01-10T14:48:03;16.93;;;11.30;;
2031;SDS011;27625;50.422;7.944;2024-01-10T14:50:31;19.23;;;11.47;;
2031;SDS011;27625;50.422;7.944;2024-01-10T14:52:59;22.47;;;13.60;;
2031;SDS011;27625;50.422;7.944;2024-01-10T14:55:26;20.90;;;12.00;;
2031;SDS011;27625;50.422;7.944;2024-01-10T14:57:53;24.83;;;10.70;;
2031;SDS011;27625;50.422;7.944;2024-01-10T15:00:20;22.50;;;11.37;;
2031;SDS011;27625;50.422;7.944;2024-01-10T15:02:48;20.53;;;12.10;;
2031;SDS011;27625;50.422;7.944;2024-01-10T15:05:16;25.47;;;12.07;;
2031;SDS011;27625;50.422;7.944;2024-01-10T15:07:44;22.60;;;13.07;;
2031;SDS011;27625;50.422;7.944;2024-01-10T15:10:12;23.10;;;12.10;;
2031;SDS011;27625;50.422;7.944;2024-01-10T15:12:39;22.80;;;12.03;;
2031;SDS011;27625;50.422;7.944;2024-01-10T15:15:06;23.43;;;12.10;;